Time;durP1;ratioP1;P1;durP2;ratioP2;P2;SDS_P1;SDS_P2;PMS_P1;PMS_P2;Temp;Humidity;BMP_temperature;BMP_pressure;BME280_temperature;BME280_humidity;BME280_pressure;Samples;Min_cycle;Max_cycle;Signal;HPM_P1;HPM_P2
2023/07/02 00:04:15;;;;;;;2.83;2.63;;;19.60;96.60;;;;;;20763371;28;20729;-69
2023/07/02 00:14:17;;;;;;;3.60;3.13;;;19.60;96.80;;;;;;20762593;28;20267;-67
2023/07/02 00:24:19;;;;;;;4.40;3.07;;;19.50;96.90;;;;;;20762324;28;20240;-68
2023/07/02 00:34:21;;;;;;;3.30;3.00;;;19.50;97.20;;;;;;20761433;28;20242;-68
2023/07/02 00:44:23;;;;;;;4.87;2.83;;;19.50;97.20;;;;;;20762381;28;20446;-69
2023/07/02 00:54:28;;;;;;;3.40;2.80;;;19.50;97.30;;;;;;20759803;28;20240;-67
2023/07/02 01:04:29;;;;;;;2.97;2.70;;;19.50;97.10;;;;;;20758046;28;20606;-67
2023/07/02 01:14:39;;;;;;;3.07;2.83;;;19.50;96.90;;;;;;20758184;28;20234;-65
2023/07/02 01:24:41;;;;;;;3.17;2.80;;;19.40;96.70;;;;;;20757603;28;20222;-66
2023/07/02 01:34:49;;;;;;;4.90;2.70;;;19.30;96.50;;;;;;20758478;28;20756;-66
2023/07/02 01:44:51;;;;;;;3.30;2.87;;;19.30;96.40;;;;;;20756258;28;20621;-69
2023/07/02 01:54:53;;;;;;;4.80;2.57;;;19.20;96.30;;;;;;20754939;28;20247;-68
2023/07/02 02:04:56;;;;;;;4.27;2.70;;;19.00;96.10;;;;;;20754284;28;20795;-68
2023/07/02 02:14:58;;;;;;;3.70;2.43;;;19.00;95.90;;;;;;20753090;28;20273;-68
2023/07/02 02:25:00;;;;;;;3.63;2.43;;;18.90;95.40;;;;;;20752746;28;20302;-69
2023/07/02 02:35:01;;;;;;;4.10;2.67;;;18.80;95.10;;;;;;20752299;28;20242;-69
2023/07/02 02:45:03;;;;;;;5.57;2.60;;;18.70;94.90;;;;;;20751067;28;20309;-69
2023/07/02 02:55:07;;;;;;;4.30;2.50;;;18.60;94.70;;;;;;20750505;28;20287;-68
2023/07/02 03:05:09;;;;;;;5.10;2.33;;;;;;;;;;20750201;28;20321;-69
2023/07/02 03:15:11;;;;;;;3.20;2.20;;;;;;;;;;20749388;28;20317;-65
2023/07/02 03:25:13;;;;;;;4.97;2.30;;;18.40;93.90;;;;;;20748233;28;20210;-68
2023/07/02 03:35:15;;;;;;;3.73;2.10;;;18.40;93.80;;;;;;20748590;28;20266;-66
2023/07/02 03:45:17;;;;;;;3.73;2.40;;;;;;;;;;20748228;28;20268;-68
2023/07/02 03:55:20;;;;;;;3.87;2.30;;;18.30;93.20;;;;;;20747859;28;20239;-68
2023/07/02 04:05:22;;;;;;;5.17;2.40;;;18.30;92.70;;;;;;20767937;28;20242;-68
2023/07/02 04:15:25;;;;;;;4.50;2.70;;;18.30;92.30;;;;;;20777452;28;20274;-69
2023/07/02 04:25:27;;;;;;;4.10;2.97;;;18.40;92.00;;;;;;20746447;28;20208;-66
2023/07/02 04:35:48;;;;;;;6.07;3.10;;;18.50;91.40;;;;;;20747720;28;20244;-67
2023/07/02 04:45:50;;;;;;;5.00;3.23;;;18.60;90.90;;;;;;20760574;28;20294;-66
2023/07/02 04:55:52;;;;;;;8.60;4.10;;;18.80;90.50;;;;;;20759713;28;20287;-68
2023/07/02 05:05:54;;;;;;;7.77;4.40;;;18.70;89.80;;;;;;20759235;28;20273;-65
2023/07/02 05:15:55;;;;;;;8.27;4.50;;;18.80;88.90;;;;;;20756983;28;20238;-66
2023/07/02 05:25:58;;;;;;;7.60;4.20;;;;;;;;;;20757469;28;20216;-65
2023/07/02 05:35:59;;;;;;;8.63;5.43;;;19.10;85.90;;;;;;20757434;28;20246;-66
2023/07/02 05:46:01;;;;;;;10.77;5.90;;;;;;;;;;20756099;28;20242;-68
2023/07/02 05:56:03;;;;;;;8.97;5.80;;;19.30;82.30;;;;;;20754526;28;20239;-65
2023/07/02 06:06:05;;;;;;;12.03;5.60;;;19.40;80.70;;;;;;20754714;28;20286;-67
2023/07/02 06:16:07;;;;;;;11.97;5.60;;;19.50;79.40;;;;;;20753589;28;20326;-67
2023/07/02 06:26:09;;;;;;;9.10;5.40;;;19.60;78.70;;;;;;20752940;28;20570;-66
2023/07/02 06:36:10;;;;;;;10.70;6.30;;;19.70;78.00;;;;;;20752711;28;20236;-61
2023/07/02 06:46:14;;;;;;;11.73;6.73;;;19.70;78.40;;;;;;20753354;28;20212;-68
2023/07/02 06:56:16;;;;;;;11.63;7.03;;;19.40;78.50;;;;;;20750769;28;20239;-69
2023/07/02 07:06:18;;;;;;;12.77;6.80;;;19.50;78.50;;;;;;20749368;28;20730;-69
2023/07/02 07:16:20;;;;;;;11.73;6.20;;;19.60;78.30;;;;;;20749336;28;20349;-63
2023/07/02 07:26:21;;;;;;;11.93;6.63;;;19.90;78.20;;;;;;20748845;28;20295;-65
2023/07/02 07:36:23;;;;;;;17.13;6.97;;;20.20;77.60;;;;;;20748728;28;20244;-64
2023/07/02 07:46:25;;;;;;;9.73;6.43;;;20.20;76.90;;;;;;20748291;28;20296;-62
2023/07/02 07:56:27;;;;;;;11.47;7.07;;;20.50;76.70;;;;;;20747547;28;20243;-65
2023/07/02 08:06:28;;;;;;;9.90;6.60;;;20.60;76.40;;;;;;20747593;28;20324;-67
2023/07/02 08:16:30;;;;;;;13.57;7.03;;;21.00;75.30;;;;;;20760470;28;20696;-64
2023/07/02 08:26:32;;;;;;;13.13;7.83;;;21.30;74.10;;;;;;20789168;28;20313;-67
2023/07/02 08:36:34;;;;;;;13.10;7.77;;;21.20;73.20;;;;;;20760005;28;20402;-67
2023/07/02 08:46:35;;;;;;;12.60;7.83;;;21.20;72.50;;;;;;20760578;28;20324;-64
2023/07/02 08:56:39;;;;;;;12.93;8.23;;;21.10;70.60;;;;;;20759723;28;20233;-71
2023/07/02 09:06:40;;;;;;;12.07;7.57;;;21.20;69.60;;;;;;20759447;28;20275;-71
2023/07/02 09:16:42;;;;;;;9.60;7.00;;;21.60;68.40;;;;;;20760061;28;20237;-64
2023/07/02 09:26:46;;;;;;;11.53;6.87;;;22.00;66.00;;;;;;20758894;28;20205;-71
2023/07/02 09:36:48;;;;;;;13.63;6.50;;;22.00;65.00;;;;;;20757154;28;20328;-69
2023/07/02 09:46:55;;;;;;;11.57;6.87;;;22.00;65.20;;;;;;20755993;28;20359;-70
2023/07/02 09:56:58;;;;;;;11.47;6.90;;;22.40;63.50;;;;;;20755215;28;20233;-70
2023/07/02 10:07:00;;;;;;;10.77;7.27;;;22.30;62.10;;;;;;20754472;28;20237;-68
2023/07/02 10:17:02;;;;;;;8.63;5.73;;;22.00;62.90;;;;;;20753647;28;20716;-63
2023/07/02 10:27:04;;;;;;;7.87;5.53;;;22.30;60.00;;;;;;20752974;28;20256;-65
2023/07/02 10:37:06;;;;;;;9.83;5.70;;;22.50;58.40;;;;;;20752186;28;20229;-65
2023/07/02 10:47:07;;;;;;;8.27;5.90;;;22.30;58.00;;;;;;20751480;28;20300;-71
2023/07/02 10:57:11;;;;;;;12.23;7.30;;;22.70;56.90;;;;;;20750857;28;20233;-70
2023/07/02 11:07:14;;;;;;;11.93;6.87;;;22.70;55.80;;;;;;20750144;28;20242;-63
2023/07/02 11:17:15;;;;;;;9.47;6.60;;;22.70;55.80;;;;;;20749379;28;20283;-63
2023/07/02 11:27:22;;;;;;;10.47;6.97;;;22.80;55.00;;;;;;20748751;28;20212;-68
2023/07/02 11:37:24;;;;;;;12.53;7.60;;;22.60;54.40;;;;;;20748936;28;20237;-70
2023/07/02 11:47:27;;;;;;;15.07;8.40;;;23.00;54.30;;;;;;20752037;28;20653;-70
2023/07/02 11:57:29;;;;;;;12.90;7.97;;;23.40;53.70;;;;;;20765947;28;20241;-71
2023/07/02 12:07:30;;;;;;;12.80;7.30;;;23.50;52.80;;;;;;20764940;28;20291;-65
2023/07/02 12:17:32;;;;;;;13.80;8.00;;;23.30;52.20;;;;;;20763267;28;20248;-64
2023/07/02 12:27:34;;;;;;;15.00;8.20;;;23.70;50.90;;;;;;20761862;28;20236;-64
2023/07/02 12:37:43;;;;;;;10.73;7.93;;;23.70;50.10;;;;;;20761189;28;20320;-63
2023/07/02 12:47:44;;;;;;;12.97;7.90;;;23.50;50.20;;;;;;20788381;28;20241;-69
2023/07/02 12:57:46;;;;;;;12.57;8.27;;;23.60;50.30;;;;;;20759654;28;20241;-64
2023/07/02 13:07:48;;;;;;;13.67;9.10;;;23.70;50.10;;;;;;20758788;28;20241;-63
2023/07/02 13:17:50;;;;;;;15.33;9.27;;;24.00;49.20;;;;;;20758567;28;20764;-65
2023/07/02 13:27:52;;;;;;;15.20;9.20;;;23.90;48.40;;;;;;20757747;28;20205;-68
2023/07/02 13:37:54;;;;;;;16.07;10.93;;;23.90;48.40;;;;;;20756698;28;20237;-68
2023/07/02 13:47:56;;;;;;;17.00;10.77;;;24.00;48.40;;;;;;20756395;28;20220;-66
2023/07/02 13:57:59;;;;;;;16.23;10.17;;;24.20;47.60;;;;;;20755091;28;20635;-67
2023/07/02 14:08:01;;;;;;;17.10;10.73;;;24.00;48.10;;;;;;20753862;28;20280;-70
2023/07/02 14:18:03;;;;;;;18.70;10.93;;;24.40;47.50;;;;;;20753894;28;20760;-72
2023/07/02 14:28:05;;;;;;;19.37;11.30;;;24.80;46.80;;;;;;20753260;28;20210;-71
2023/07/02 14:38:07;;;;;;;19.17;10.70;;;25.30;45.50;;;;;;20753007;28;20726;-71
2023/07/02 14:48:08;;;;;;;19.10;11.23;;;25.40;45.10;;;;;;20752436;28;20209;-65
2023/07/02 14:58:11;;;;;;;18.63;10.80;;;26.10;44.60;;;;;;20750804;28;20670;-64
2023/07/02 15:08:13;;;;;;;17.00;10.50;;;26.50;43.60;;;;;;20750121;28;20272;-64
2023/07/02 15:18:15;;;;;;;22.27;10.55;;;27.80;41.80;;;;;;20749731;28;20237;-66
2023/07/02 15:28:20;;;;;;;15.32;10.10;;;27.10;41.80;;;;;;20747873;28;20296;-65
2023/07/02 15:38:21;;;;;;;21.50;11.10;;;27.40;40.80;;;;;;20748074;28;20264;-68
2023/07/02 15:48:23;;;;;;;15.47;9.87;;;26.40;42.80;;;;;;20748224;28;20213;-65
2023/07/02 15:58:27;;;;;;;15.35;10.52;;;26.60;42.30;;;;;;20747385;28;20241;-70
2023/07/02 16:08:29;;;;;;;16.92;10.90;;;27.50;41.00;;;;;;20746668;28;20323;-69
2023/07/02 16:18:30;;;;;;;15.73;10.52;;;28.10;40.50;;;;;;20746927;28;20237;-69
2023/07/02 16:28:34;;;;;;;17.42;10.85;;;29.50;38.90;;;;;;20746133;28;20209;-68
2023/07/02 16:38:37;;;;;;;17.95;11.38;;;30.70;36.90;;;;;;20756930;28;20750;-68
2023/07/02 16:48:38;;;;;;;19.37;11.03;;;27.50;39.60;;;;;;20760922;28;20205;-69
2023/07/02 16:58:40;;;;;;;19.40;10.87;;;26.60;41.00;;;;;;20769061;28;20240;-66
2023/07/02 17:08:42;;;;;;;16.10;10.83;;;26.00;42.00;;;;;;20795472;28;20279;-71
2023/07/02 17:18:44;;;;;;;17.50;11.50;;;26.10;42.70;;;;;;20841005;28;20324;-71
2023/07/02 17:28:46;;;;;;;17.42;11.30;;;28.10;40.90;;;;;;20839772;28;20656;-72
2023/07/02 17:38:48;;;;;;;17.50;10.93;;;30.40;37.90;;;;;;20838358;28;20235;-71
2023/07/02 17:48:49;;;;;;;16.65;10.85;;;35.10;33.00;;;;;;20837068;28;20212;-70
2023/07/02 17:58:54;;;;;;;16.25;10.68;;;34.60;32.10;;;;;;20836994;28;20232;-68
2023/07/02 18:08:55;;;;;;;17.73;11.20;;;31.60;34.20;;;;;;20835274;28;20270;-66
2023/07/02 18:18:57;;;;;;;19.38;11.10;;;28.10;38.20;;;;;;20851075;28;20644;-66
2023/07/02 18:28:59;;;;;;;18.90;10.90;;;26.30;40.60;;;;;;20834815;28;20646;-63
2023/07/02 18:39:01;;;;;;;24.83;11.57;;;25.30;42.50;;;;;;20833763;28;20240;-64
2023/07/02 18:49:06;;;;;;;24.10;11.80;;;24.60;43.90;;;;;;20832639;28;20728;-63
2023/07/02 18:59:08;;;;;;;19.07;11.10;;;24.20;45.10;;;;;;20776962;28;20241;-66
2023/07/02 19:09:10;;;;;;;15.33;10.13;;;23.90;46.00;;;;;;20749204;28;20232;-66
2023/07/02 19:19:12;;;;;;;19.10;11.00;;;23.60;47.00;;;;;;20749037;28;20237;-62
2023/07/02 19:29:14;;;;;;;17.37;10.87;;;23.20;47.50;;;;;;20800935;28;20212;-66
2023/07/02 19:39:17;;;;;;;20.17;10.97;;;22.90;48.40;;;;;;20828187;28;20326;-64
2023/07/02 19:49:20;;;;;;;21.30;11.83;;;22.60;49.20;;;;;;20827270;28;20213;-67
2023/07/02 19:59:21;;;;;;;19.27;11.13;;;22.40;49.70;;;;;;20827615;28;20264;-70
2023/07/02 20:09:23;;;;;;;17.23;11.00;;;22.10;50.00;;;;;;20847098;28;20232;-64
2023/07/02 20:19:25;;;;;;;19.03;10.83;;;21.90;50.20;;;;;;20842534;28;20322;-67
2023/07/02 20:29:27;;;;;;;21.17;12.00;;;22.00;50.80;;;;;;20841859;28;20208;-69
2023/07/02 20:39:28;;;;;;;21.33;11.20;;;21.90;51.20;;;;;;20840887;28;20910;-68
2023/07/02 20:49:31;;;;;;;19.70;11.70;;;21.80;51.30;;;;;;20839301;28;20236;-60
2023/07/02 20:59:32;;;;;;;22.67;11.73;;;21.60;51.20;;;;;;20831005;28;20596;-61
2023/07/02 21:09:36;;;;;;;27.87;12.67;;;21.40;52.00;;;;;;20776984;28;20331;-62
2023/07/02 21:19:38;;;;;;;21.87;11.83;;;21.30;51.70;;;;;;20775706;28;20310;-61
2023/07/02 21:29:40;;;;;;;17.60;11.20;;;21.10;52.00;;;;;;20833198;28;20294;-62
2023/07/02 21:39:42;;;;;;;21.20;11.47;;;21.00;52.30;;;;;;20836298;28;20263;-62
2023/07/02 21:49:44;;;;;;;21.73;11.93;;;20.90;52.60;;;;;;20837777;28;20303;-63
2023/07/02 21:59:45;;;;;;;21.03;12.10;;;20.80;52.80;;;;;;20836907;28;20662;-61
2023/07/02 22:09:47;;;;;;;23.73;13.33;;;20.60;53.00;;;;;;20836190;28;20268;-61
2023/07/02 22:19:49;;;;;;;23.27;12.63;;;20.50;53.40;;;;;;20835981;28;20242;-61
2023/07/02 22:29:50;;;;;;;20.73;11.93;;;20.40;53.60;;;;;;20834809;28;20727;-61
2023/07/02 22:39:52;;;;;;;23.00;11.67;;;20.30;53.90;;;;;;20834470;28;20770;-67
2023/07/02 22:49:54;;;;;;;21.10;11.60;;;20.20;54.00;;;;;;20836343;28;20662;-71
2023/07/02 22:59:59;;;;;;;21.57;11.93;;;20.10;54.10;;;;;;20847848;28;20326;-72
2023/07/02 23:10:01;;;;;;;21.17;11.03;;;20.10;54.30;;;;;;20831746;28;20726;-70
2023/07/02 23:20:03;;;;;;;20.17;11.80;;;20.00;54.40;;;;;;20831569;28;20266;-66
2023/07/02 23:30:11;;;;;;;22.27;10.77;;;20.00;54.60;;;;;;20830781;28;20701;-69
2023/07/02 23:40:15;;;;;;;24.53;11.97;;;19.80;54.70;;;;;;20830146;28;20706;-68
2023/07/02 23:50:18;;;;;;;20.53;11.23;;;19.70;55.00;;;;;;20829315;28;20670;-69
